sensor_id;sensor_type;location;lat;lon;timestamp;pressure;altitude;pressure_sealevel;temperature;humidity
31501;BME280;31032;49.512;10.892;2022-07-29T00:00:22;97706.34;;;21.60;52.56
31501;BME280;31032;49.512;10.892;2022-07-29T00:02:47;97712.63;;;21.58;52.47
31501;BME280;31032;49.512;10.892;2022-07-29T00:05:12;97713.06;;;21.69;51.98
31501;BME280;31032;49.512;10.892;2022-07-29T00:07:39;97711.63;;;21.46;52.97
31501;BME280;31032;49.512;10.892;2022-07-29T00:10:04;97701.44;;;21.50;51.80
31501;BME280;31032;49.512;10.892;2022-07-29T00:12:30;97698.16;;;21.54;52.29
31501;BME280;31032;49.512;10.892;2022-07-29T00:14:55;97699.00;;;21.48;52.44
31501;BME280;31032;49.512;10.892;2022-07-29T00:17:22;97694.31;;;21.57;52.15
31501;BME280;31032;49.512;10.892;2022-07-29T00:19:47;97694.50;;;21.55;52.98
31501;BME280;31032;49.512;10.892;2022-07-29T00:22:12;97683.09;;;21.55;52.13
31501;BME280;31032;49.512;10.892;2022-07-29T00:24:38;97679.00;;;21.46;53.44
31501;BME280;31032;49.512;10.892;2022-07-29T00:27:03;97670.84;;;21.47;52.22
31501;BME280;31032;49.512;10.892;2022-07-29T00:29:28;97678.16;;;21.39;52.08
31501;BME280;31032;49.512;10.892;2022-07-29T00:31:53;97676.56;;;21.44;52.15
31501;BME280;31032;49.512;10.892;2022-07-29T00:34:19;97675.72;;;21.50;51.53
31501;BME280;31032;49.512;10.892;2022-07-29T00:37:03;97670.06;;;21.60;51.19
31501;BME280;31032;49.512;10.892;2022-07-29T00:39:29;97667.22;;;21.62;50.73
31501;BME280;31032;49.512;10.892;2022-07-29T00:41:54;97662.72;;;21.69;50.22
31501;BME280;31032;49.512;10.892;2022-07-29T00:44:19;97664.38;;;21.70;49.60
31501;BME280;31032;49.512;10.892;2022-07-29T00:46:45;97678.22;;;21.78;48.86
31501;BME280;31032;49.512;10.892;2022-07-29T00:49:10;97680.66;;;21.80;49.18
31501;BME280;31032;49.512;10.892;2022-07-29T00:51:36;97683.56;;;21.85;48.69
31501;BME280;31032;49.512;10.892;2022-07-29T00:54:02;97681.53;;;21.87;48.55
31501;BME280;31032;49.512;10.892;2022-07-29T00:56:30;97681.31;;;21.88;48.67
31501;BME280;31032;49.512;10.892;2022-07-29T00:58:56;97683.16;;;21.88;48.43
31501;BME280;31032;49.512;10.892;2022-07-29T01:01:22;97690.50;;;21.99;48.51
31501;BME280;31032;49.512;10.892;2022-07-29T01:03:48;97694.97;;;21.92;48.04
31501;BME280;31032;49.512;10.892;2022-07-29T01:06:14;97694.56;;;21.88;49.07
31501;BME280;31032;49.512;10.892;2022-07-29T01:08:40;97691.50;;;21.91;48.64
31501;BME280;31032;49.512;10.892;2022-07-29T01:11:06;97698.84;;;21.83;49.45
31501;BME280;31032;49.512;10.892;2022-07-29T01:13:32;97688.25;;;21.83;49.54
31501;BME280;31032;49.512;10.892;2022-07-29T01:16:06;97693.56;;;21.83;48.67
31501;BME280;31032;49.512;10.892;2022-07-29T01:18:37;97692.94;;;21.81;49.08
31501;BME280;31032;49.512;10.892;2022-07-29T01:21:23;97691.25;;;21.80;50.09
31501;BME280;31032;49.512;10.892;2022-07-29T01:29:32;97687.38;;;21.76;50.06
31501;BME280;31032;49.512;10.892;2022-07-29T01:39:38;97686.19;;;21.72;49.71
31501;BME280;31032;49.512;10.892;2022-07-29T01:42:27;97693.88;;;21.40;51.52
31501;BME280;31032;49.512;10.892;2022-07-29T01:44:59;97680.19;;;21.37;51.52
31501;BME280;31032;49.512;10.892;2022-07-29T01:47:33;97674.50;;;21.27;51.75
31501;BME280;31032;49.512;10.892;2022-07-29T01:50:00;97670.81;;;21.28;51.09
31501;BME280;31032;49.512;10.892;2022-07-29T01:52:58;97661.44;;;21.25;51.41
31501;BME280;31032;49.512;10.892;2022-07-29T01:55:28;97662.47;;;21.24;52.06
31501;BME280;31032;49.512;10.892;2022-07-29T01:57:56;97654.94;;;21.21;51.48
31501;BME280;31032;49.512;10.892;2022-07-29T02:00:23;97655.31;;;21.18;51.44
31501;BME280;31032;49.512;10.892;2022-07-29T02:02:49;97661.03;;;21.15;51.86
31501;BME280;31032;49.512;10.892;2022-07-29T02:05:18;97660.16;;;21.08;51.94
31501;BME280;31032;49.512;10.892;2022-07-29T02:07:46;97663.84;;;21.07;51.88
31501;BME280;31032;49.512;10.892;2022-07-29T02:10:13;97661.56;;;21.04;52.30
31501;BME280;31032;49.512;10.892;2022-07-29T02:12:42;97671.38;;;21.04;52.06
31501;BME280;31032;49.512;10.892;2022-07-29T02:15:09;97671.50;;;20.96;52.00
31501;BME280;31032;49.512;10.892;2022-07-29T02:17:42;97660.25;;;20.87;52.08
31501;BME280;31032;49.512;10.892;2022-07-29T02:20:09;97655.38;;;20.84;51.79
31501;BME280;31032;49.512;10.892;2022-07-29T02:22:37;97663.06;;;20.79;52.33
31501;BME280;31032;49.512;10.892;2022-07-29T02:25:03;97659.19;;;20.75;53.00
31501;BME280;31032;49.512;10.892;2022-07-29T02:27:30;97661.22;;;20.66;53.08
31501;BME280;31032;49.512;10.892;2022-07-29T02:30:00;97659.38;;;20.67;53.61
31501;BME280;31032;49.512;10.892;2022-07-29T02:32:28;97662.41;;;20.64;52.90
31501;BME280;31032;49.512;10.892;2022-07-29T02:34:55;97657.97;;;20.71;52.73
31501;BME280;31032;49.512;10.892;2022-07-29T02:37:22;97650.63;;;20.66;52.68
31501;BME280;31032;49.512;10.892;2022-07-29T02:39:52;97657.88;;;20.51;53.72
31501;BME280;31032;49.512;10.892;2022-07-29T02:42:21;97660.06;;;20.41;53.49
31501;BME280;31032;49.512;10.892;2022-07-29T02:44:47;97654.56;;;20.43;53.94
31501;BME280;31032;49.512;10.892;2022-07-29T02:47:23;97657.38;;;20.35;54.12
31501;BME280;31032;49.512;10.892;2022-07-29T02:49:55;97655.50;;;20.29;54.13
31501;BME280;31032;49.512;10.892;2022-07-29T02:52:46;97658.13;;;20.29;54.37
31501;BME280;31032;49.512;10.892;2022-07-29T02:57:47;97656.13;;;20.03;55.55
31501;BME280;31032;49.512;10.892;2022-07-29T03:00:14;97653.56;;;19.89;55.65
31501;BME280;31032;49.512;10.892;2022-07-29T03:02:43;97667.94;;;19.79;55.36
31501;BME280;31032;49.512;10.892;2022-07-29T03:05:14;97669.81;;;19.86;55.03
31501;BME280;31032;49.512;10.892;2022-07-29T03:07:43;97665.16;;;19.88;54.39
31501;BME280;31032;49.512;10.892;2022-07-29T03:10:11;97661.69;;;19.87;54.74
31501;BME280;31032;49.512;10.892;2022-07-29T03:12:37;97670.94;;;19.76;55.19
31501;BME280;31032;49.512;10.892;2022-07-29T03:15:03;97663.84;;;19.77;55.63
31501;BME280;31032;49.512;10.892;2022-07-29T03:17:30;97665.56;;;19.91;54.97
31501;BME280;31032;49.512;10.892;2022-07-29T03:19:57;97666.66;;;19.75;56.00
31501;BME280;31032;49.512;10.892;2022-07-29T03:22:24;97670.50;;;19.73;56.48
31501;BME280;31032;49.512;10.892;2022-07-29T03:24:49;97668.19;;;19.63;56.02
31501;BME280;31032;49.512;10.892;2022-07-29T03:27:14;97656.78;;;19.63;57.25
31501;BME280;31032;49.512;10.892;2022-07-29T03:29:40;97658.81;;;19.61;56.83
31501;BME280;31032;49.512;10.892;2022-07-29T03:32:05;97654.75;;;19.58;55.98
31501;BME280;31032;49.512;10.892;2022-07-29T03:34:31;97659.00;;;19.59;56.22
31501;BME280;31032;49.512;10.892;2022-07-29T03:36:56;97660.63;;;19.82;56.62
31501;BME280;31032;49.512;10.892;2022-07-29T03:39:25;97661.00;;;19.78;55.44
31501;BME280;31032;49.512;10.892;2022-07-29T03:41:55;97658.03;;;19.39;58.59
31501;BME280;31032;49.512;10.892;2022-07-29T03:44:22;97665.41;;;19.29;57.16
31501;BME280;31032;49.512;10.892;2022-07-29T03:46:50;97660.66;;;19.39;56.34
31501;BME280;31032;49.512;10.892;2022-07-29T03:49:18;97656.66;;;19.43;57.53
31501;BME280;31032;49.512;10.892;2022-07-29T03:51:44;97656.94;;;19.34;58.45
31501;BME280;31032;49.512;10.892;2022-07-29T03:54:10;97655.94;;;19.20;58.74
31501;BME280;31032;49.512;10.892;2022-07-29T03:56:39;97656.06;;;18.91;58.68
31501;BME280;31032;49.512;10.892;2022-07-29T03:59:06;97661.34;;;18.91;59.14
31501;BME280;31032;49.512;10.892;2022-07-29T04:01:33;97666.81;;;18.75;60.42
31501;BME280;31032;49.512;10.892;2022-07-29T04:04:00;97671.97;;;18.68;61.38
31501;BME280;31032;49.512;10.892;2022-07-29T04:06:25;97672.38;;;18.65;61.24
31501;BME280;31032;49.512;10.892;2022-07-29T04:08:51;97667.78;;;18.88;60.67
31501;BME280;31032;49.512;10.892;2022-07-29T04:11:16;97680.31;;;19.22;57.74
31501;BME280;31032;49.512;10.892;2022-07-29T04:13:42;97673.72;;;19.12;58.40
31501;BME280;31032;49.512;10.892;2022-07-29T04:16:07;97674.53;;;18.91;59.40
31501;BME280;31032;49.512;10.892;2022-07-29T04:18:32;97675.75;;;18.95;60.29
31501;BME280;31032;49.512;10.892;2022-07-29T04:20:58;97675.59;;;18.97;59.54
31501;BME280;31032;49.512;10.892;2022-07-29T04:23:26;97679.34;;;19.23;58.96
31501;BME280;31032;49.512;10.892;2022-07-29T04:25:51;97688.53;;;19.27;59.74
31501;BME280;31032;49.512;10.892;2022-07-29T04:28:17;97683.75;;;19.16;59.45
31501;BME280;31032;49.512;10.892;2022-07-29T04:30:42;97685.56;;;19.16;59.41
31501;BME280;31032;49.512;10.892;2022-07-29T04:33:07;97681.16;;;18.87;61.54
31501;BME280;31032;49.512;10.892;2022-07-29T04:35:37;97686.34;;;18.80;62.33
31501;BME280;31032;49.512;10.892;2022-07-29T04:38:04;97689.16;;;18.79;63.41
31501;BME280;31032;49.512;10.892;2022-07-29T04:40:30;97693.53;;;18.72;61.98
31501;BME280;31032;49.512;10.892;2022-07-29T04:42:55;97690.72;;;18.73;61.82
31501;BME280;31032;49.512;10.892;2022-07-29T04:45:20;97685.91;;;18.77;63.35
31501;BME280;31032;49.512;10.892;2022-07-29T04:47:46;97691.63;;;18.80;62.58
31501;BME280;31032;49.512;10.892;2022-07-29T04:50:11;97693.38;;;18.73;62.84
31501;BME280;31032;49.512;10.892;2022-07-29T04:52:37;97688.63;;;18.69;62.96
31501;BME280;31032;49.512;10.892;2022-07-29T04:55:04;97689.84;;;19.02;63.07
31501;BME280;31032;49.512;10.892;2022-07-29T04:57:29;97699.72;;;19.29;61.29
31501;BME280;31032;49.512;10.892;2022-07-29T04:59:55;97702.53;;;19.28;61.32
31501;BME280;31032;49.512;10.892;2022-07-29T05:02:20;97697.13;;;19.00;62.33
31501;BME280;31032;49.512;10.892;2022-07-29T05:04:47;97701.00;;;19.19;60.61
31501;BME280;31032;49.512;10.892;2022-07-29T05:07:12;97702.69;;;19.26;62.23
31501;BME280;31032;49.512;10.892;2022-07-29T05:09:37;97697.06;;;19.29;62.00
31501;BME280;31032;49.512;10.892;2022-07-29T05:12:03;97704.91;;;19.37;60.86
31501;BME280;31032;49.512;10.892;2022-07-29T05:14:28;97707.44;;;19.31;62.44
31501;BME280;31032;49.512;10.892;2022-07-29T05:16:54;97707.34;;;19.39;62.50
31501;BME280;31032;49.512;10.892;2022-07-29T05:19:22;97701.31;;;19.45;61.55
31501;BME280;31032;49.512;10.892;2022-07-29T05:21:47;97709.25;;;19.30;62.88
31501;BME280;31032;49.512;10.892;2022-07-29T05:24:13;97703.53;;;19.41;62.55
31501;BME280;31032;49.512;10.892;2022-07-29T05:26:39;97700.34;;;19.31;64.64
31501;BME280;31032;49.512;10.892;2022-07-29T05:29:04;97709.63;;;19.27;65.78
31501;BME280;31032;49.512;10.892;2022-07-29T05:31:30;97697.91;;;19.30;64.23
31501;BME280;31032;49.512;10.892;2022-07-29T05:33:55;97698.59;;;19.38;61.93
31501;BME280;31032;49.512;10.892;2022-07-29T05:36:20;97701.38;;;19.51;60.19
31501;BME280;31032;49.512;10.892;2022-07-29T05:38:46;97702.31;;;19.65;60.50
31501;BME280;31032;49.512;10.892;2022-07-29T05:41:11;97700.38;;;19.73;60.03
31501;BME280;31032;49.512;10.892;2022-07-29T05:43:36;97698.03;;;19.85;58.96
31501;BME280;31032;49.512;10.892;2022-07-29T05:46:02;97698.09;;;19.92;59.76
31501;BME280;31032;49.512;10.892;2022-07-29T05:48:27;97701.47;;;20.07;57.50
31501;BME280;31032;49.512;10.892;2022-07-29T05:50:53;97698.28;;;20.18;57.35
31501;BME280;31032;49.512;10.892;2022-07-29T05:53:19;97703.69;;;20.24;56.22
31501;BME280;31032;49.512;10.892;2022-07-29T05:55:44;97713.72;;;20.35;57.10
31501;BME280;31032;49.512;10.892;2022-07-29T05:58:10;97710.78;;;20.51;55.76
31501;BME280;31032;49.512;10.892;2022-07-29T06:00:35;97702.28;;;20.62;55.14
31501;BME280;31032;49.512;10.892;2022-07-29T06:03:00;97704.34;;;20.67;55.14
31501;BME280;31032;49.512;10.892;2022-07-29T06:05:26;97710.88;;;20.71;56.10
31501;BME280;31032;49.512;10.892;2022-07-29T06:07:51;97711.78;;;20.85;55.15
31501;BME280;31032;49.512;10.892;2022-07-29T06:10:17;97698.19;;;20.94;55.07
31501;BME280;31032;49.512;10.892;2022-07-29T06:12:42;97709.19;;;20.98;54.73
31501;BME280;31032;49.512;10.892;2022-07-29T06:15:08;97709.84;;;21.06;54.19
31501;BME280;31032;49.512;10.892;2022-07-29T06:17:33;97713.94;;;21.09;55.12
31501;BME280;31032;49.512;10.892;2022-07-29T06:19:59;97704.63;;;21.19;55.64
31501;BME280;31032;49.512;10.892;2022-07-29T06:22:24;97708.28;;;21.31;55.25
31501;BME280;31032;49.512;10.892;2022-07-29T06:24:49;97699.78;;;21.42;55.26
31501;BME280;31032;49.512;10.892;2022-07-29T06:27:15;97706.94;;;21.55;55.47
31501;BME280;31032;49.512;10.892;2022-07-29T06:29:41;97705.53;;;21.66;54.84
31501;BME280;31032;49.512;10.892;2022-07-29T06:32:06;97712.25;;;21.75;55.29
31501;BME280;31032;49.512;10.892;2022-07-29T06:34:34;97708.41;;;21.84;54.50
31501;BME280;31032;49.512;10.892;2022-07-29T06:36:59;97703.53;;;22.13;53.81
31501;BME280;31032;49.512;10.892;2022-07-29T06:39:25;97711.91;;;22.17;54.04
31501;BME280;31032;49.512;10.892;2022-07-29T06:41:50;97704.13;;;22.28;53.96
31501;BME280;31032;49.512;10.892;2022-07-29T06:44:16;97707.41;;;22.37;53.83
31501;BME280;31032;49.512;10.892;2022-07-29T06:46:42;97714.50;;;22.50;53.63
31501;BME280;31032;49.512;10.892;2022-07-29T06:49:08;97712.69;;;22.50;54.56
31501;BME280;31032;49.512;10.892;2022-07-29T06:51:34;97713.91;;;22.54;53.95
31501;BME280;31032;49.512;10.892;2022-07-29T06:53:59;97715.94;;;22.65;54.14
31501;BME280;31032;49.512;10.892;2022-07-29T06:56:25;97716.09;;;22.83;54.01
31501;BME280;31032;49.512;10.892;2022-07-29T06:58:51;97707.91;;;22.91;53.40
31501;BME280;31032;49.512;10.892;2022-07-29T07:01:16;97711.72;;;23.08;53.09
31501;BME280;31032;49.512;10.892;2022-07-29T07:03:42;97713.72;;;23.19;53.22
31501;BME280;31032;49.512;10.892;2022-07-29T07:06:07;97711.97;;;23.45;52.78
31501;BME280;31032;49.512;10.892;2022-07-29T07:08:33;97713.03;;;23.44;51.96
31501;BME280;31032;49.512;10.892;2022-07-29T07:10:58;97719.81;;;23.71;52.33
31501;BME280;31032;49.512;10.892;2022-07-29T07:13:24;97723.06;;;23.73;52.15
31501;BME280;31032;49.512;10.892;2022-07-29T07:15:50;97715.97;;;23.91;52.22
31501;BME280;31032;49.512;10.892;2022-07-29T07:18:17;97718.00;;;23.96;51.32
31501;BME280;31032;49.512;10.892;2022-07-29T07:20:43;97712.50;;;23.91;51.07
31501;BME280;31032;49.512;10.892;2022-07-29T07:23:09;97711.84;;;24.02;52.18
31501;BME280;31032;49.512;10.892;2022-07-29T07:25:35;97704.84;;;24.07;51.66
31501;BME280;31032;49.512;10.892;2022-07-29T07:28:00;97704.03;;;24.07;52.07
31501;BME280;31032;49.512;10.892;2022-07-29T07:30:26;97711.72;;;24.15;51.53
31501;BME280;31032;49.512;10.892;2022-07-29T07:32:52;97711.72;;;24.15;51.49
31501;BME280;31032;49.512;10.892;2022-07-29T07:35:18;97710.88;;;24.39;51.44
31501;BME280;31032;49.512;10.892;2022-07-29T07:37:43;97717.63;;;24.42;51.03
31501;BME280;31032;49.512;10.892;2022-07-29T07:40:10;97704.97;;;24.37;51.95
31501;BME280;31032;49.512;10.892;2022-07-29T07:42:39;97707.31;;;24.52;51.68
31501;BME280;31032;49.512;10.892;2022-07-29T07:45:05;97702.56;;;24.54;51.56
31501;BME280;31032;49.512;10.892;2022-07-29T07:47:32;97706.34;;;24.64;51.07
31501;BME280;31032;49.512;10.892;2022-07-29T07:49:57;97701.28;;;24.81;50.87
31501;BME280;31032;49.512;10.892;2022-07-29T07:52:23;97703.84;;;24.69;51.39
31501;BME280;31032;49.512;10.892;2022-07-29T07:54:48;97701.34;;;24.74;51.59
31501;BME280;31032;49.512;10.892;2022-07-29T07:57:14;97702.09;;;24.81;50.77
31501;BME280;31032;49.512;10.892;2022-07-29T07:59:40;97701.78;;;24.89;50.64
31501;BME280;31032;49.512;10.892;2022-07-29T08:02:06;97701.78;;;25.08;49.90
31501;BME280;31032;49.512;10.892;2022-07-29T08:04:32;97701.13;;;24.76;50.18
31501;BME280;31032;49.512;10.892;2022-07-29T08:06:58;97700.91;;;24.95;50.52
31501;BME280;31032;49.512;10.892;2022-07-29T08:09:24;97703.38;;;25.27;50.73
31501;BME280;31032;49.512;10.892;2022-07-29T08:11:50;97697.47;;;25.84;49.72
31501;BME280;31032;49.512;10.892;2022-07-29T08:14:16;97701.69;;;26.03;48.63
31501;BME280;31032;49.512;10.892;2022-07-29T08:16:41;97705.44;;;26.25;48.12
31501;BME280;31032;49.512;10.892;2022-07-29T08:19:07;97704.50;;;26.20;47.76
31501;BME280;31032;49.512;10.892;2022-07-29T08:21:33;97703.69;;;26.19;47.60
31501;BME280;31032;49.512;10.892;2022-07-29T08:23:58;97703.50;;;26.32;48.45
31501;BME280;31032;49.512;10.892;2022-07-29T08:26:43;97697.41;;;26.60;47.35
31501;BME280;31032;49.512;10.892;2022-07-29T08:29:09;97700.47;;;26.75;46.09
31501;BME280;31032;49.512;10.892;2022-07-29T08:31:36;97694.53;;;26.85;47.16
31501;BME280;31032;49.512;10.892;2022-07-29T08:34:02;97699.69;;;27.03;45.95
31501;BME280;31032;49.512;10.892;2022-07-29T08:36:28;97692.56;;;27.59;44.82
31501;BME280;31032;49.512;10.892;2022-07-29T08:38:53;97693.03;;;27.17;44.49
31501;BME280;31032;49.512;10.892;2022-07-29T08:41:19;97694.34;;;27.71;45.04
31501;BME280;31032;49.512;10.892;2022-07-29T08:43:45;97695.06;;;27.94;44.54
31501;BME280;31032;49.512;10.892;2022-07-29T08:46:11;97689.03;;;27.87;43.68
31501;BME280;31032;49.512;10.892;2022-07-29T08:48:36;97700.47;;;27.99;44.15
31501;BME280;31032;49.512;10.892;2022-07-29T08:51:02;97696.00;;;27.88;43.28
31501;BME280;31032;49.512;10.892;2022-07-29T08:53:28;97688.34;;;27.80;43.34
31501;BME280;31032;49.512;10.892;2022-07-29T08:55:54;97692.47;;;27.15;44.46
31501;BME280;31032;49.512;10.892;2022-07-29T08:58:20;97690.88;;;27.42;43.95
31501;BME280;31032;49.512;10.892;2022-07-29T09:00:51;97691.22;;;27.06;45.16
31501;BME280;31032;49.512;10.892;2022-07-29T09:03:18;97690.66;;;27.32;45.26
31501;BME280;31032;49.512;10.892;2022-07-29T09:05:45;97688.34;;;27.63;43.72
31501;BME280;31032;49.512;10.892;2022-07-29T09:08:11;97692.22;;;27.56;44.74
31501;BME280;31032;49.512;10.892;2022-07-29T09:10:38;97680.44;;;27.85;44.78
31501;BME280;31032;49.512;10.892;2022-07-29T09:13:03;97684.78;;;28.03;44.06
31501;BME280;31032;49.512;10.892;2022-07-29T09:15:28;97679.94;;;27.72;44.40
31501;BME280;31032;49.512;10.892;2022-07-29T09:17:54;97689.81;;;27.71;44.21
31501;BME280;31032;49.512;10.892;2022-07-29T09:20:22;97680.91;;;27.82;44.22
31501;BME280;31032;49.512;10.892;2022-07-29T09:22:49;97685.31;;;28.21;43.05
31501;BME280;31032;49.512;10.892;2022-07-29T09:25:36;97691.66;;;28.32;42.79
31501;BME280;31032;49.512;10.892;2022-07-29T09:28:13;97695.06;;;28.27;42.39
31501;BME280;31032;49.512;10.892;2022-07-29T09:30:53;97686.63;;;28.02;42.70
31501;BME280;31032;49.512;10.892;2022-07-29T09:33:19;97688.06;;;27.93;42.93
31501;BME280;31032;49.512;10.892;2022-07-29T09:35:45;97685.97;;;28.12;42.51
31501;BME280;31032;49.512;10.892;2022-07-29T09:38:13;97680.50;;;27.90;43.51
31501;BME280;31032;49.512;10.892;2022-07-29T09:40:39;97678.16;;;27.77;42.82
31501;BME280;31032;49.512;10.892;2022-07-29T09:43:11;97674.91;;;27.75;42.78
31501;BME280;31032;49.512;10.892;2022-07-29T09:45:37;97674.97;;;28.08;43.45
31501;BME280;31032;49.512;10.892;2022-07-29T09:48:18;97683.88;;;28.14;43.34
31501;BME280;31032;49.512;10.892;2022-07-29T09:50:45;97681.47;;;28.34;42.56
31501;BME280;31032;49.512;10.892;2022-07-29T09:53:12;97682.50;;;28.28;41.96
31501;BME280;31032;49.512;10.892;2022-07-29T09:55:51;97683.44;;;28.38;42.05
31501;BME280;31032;49.512;10.892;2022-07-29T09:58:18;97685.75;;;28.51;42.47
31501;BME280;31032;49.512;10.892;2022-07-29T10:00:44;97682.25;;;28.29;41.98
31501;BME280;31032;49.512;10.892;2022-07-29T10:03:10;97679.63;;;28.34;41.97
31501;BME280;31032;49.512;10.892;2022-07-29T10:05:36;97687.97;;;28.38;41.86
31501;BME280;31032;49.512;10.892;2022-07-29T10:08:02;97682.03;;;28.69;42.30
31501;BME280;31032;49.512;10.892;2022-07-29T10:10:29;97678.41;;;28.59;42.08
31501;BME280;31032;49.512;10.892;2022-07-29T10:13:06;97680.84;;;28.60;41.71
31501;BME280;31032;49.512;10.892;2022-07-29T10:15:36;97674.72;;;28.48;41.16
31501;BME280;31032;49.512;10.892;2022-07-29T10:18:06;97681.44;;;28.84;42.04
31501;BME280;31032;49.512;10.892;2022-07-29T10:20:33;97688.06;;;28.60;41.92
31501;BME280;31032;49.512;10.892;2022-07-29T10:22:58;97681.94;;;28.47;42.52
31501;BME280;31032;49.512;10.892;2022-07-29T10:25:24;97687.50;;;28.24;41.98
31501;BME280;31032;49.512;10.892;2022-07-29T10:27:50;97679.84;;;28.49;42.28
31501;BME280;31032;49.512;10.892;2022-07-29T10:30:21;97676.56;;;28.81;41.89
31501;BME280;31032;49.512;10.892;2022-07-29T10:33:11;97671.44;;;29.01;41.24
31501;BME280;31032;49.512;10.892;2022-07-29T10:41:05;97659.84;;;28.35;42.76
31501;BME280;31032;49.512;10.892;2022-07-29T10:44:15;97657.06;;;28.30;42.01
31501;BME280;31032;49.512;10.892;2022-07-29T10:46:42;97660.44;;;29.19;41.01
31501;BME280;31032;49.512;10.892;2022-07-29T10:52:09;97645.28;;;29.88;39.94
31501;BME280;31032;49.512;10.892;2022-07-29T10:57:27;97648.03;;;29.39;40.50
31501;BME280;31032;49.512;10.892;2022-07-29T11:07:32;97637.63;;;29.00;40.31
31501;BME280;31032;49.512;10.892;2022-07-29T11:15:06;97633.28;;;29.69;39.47
31501;BME280;31032;49.512;10.892;2022-07-29T11:25:42;97627.94;;;29.15;39.25
31501;BME280;31032;49.512;10.892;2022-07-29T11:28:19;97637.09;;;28.98;40.37
31501;BME280;31032;49.512;10.892;2022-07-29T11:30:50;97632.50;;;28.72;41.15
31501;BME280;31032;49.512;10.892;2022-07-29T11:33:32;97636.97;;;28.88;39.93
31501;BME280;31032;49.512;10.892;2022-07-29T11:38:34;97635.13;;;29.63;39.97
31501;BME280;31032;49.512;10.892;2022-07-29T11:41:29;97621.31;;;29.76;39.41
31501;BME280;31032;49.512;10.892;2022-07-29T11:43:59;97622.91;;;29.77;38.49
31501;BME280;31032;49.512;10.892;2022-07-29T11:46:49;97619.66;;;29.75;38.46
31501;BME280;31032;49.512;10.892;2022-07-29T11:49:26;97618.69;;;29.86;39.10
31501;BME280;31032;49.512;10.892;2022-07-29T11:51:56;97606.88;;;29.87;38.71
31501;BME280;31032;49.512;10.892;2022-07-29T11:54:32;97601.69;;;30.12;38.60
31501;BME280;31032;49.512;10.892;2022-07-29T11:56:58;97603.50;;;30.44;37.82
31501;BME280;31032;49.512;10.892;2022-07-29T11:59:24;97593.97;;;30.68;37.29
31501;BME280;31032;49.512;10.892;2022-07-29T12:01:57;97590.31;;;30.89;37.38
31501;BME280;31032;49.512;10.892;2022-07-29T12:04:22;97594.91;;;30.42;36.82
31501;BME280;31032;49.512;10.892;2022-07-29T12:06:57;97587.13;;;30.45;36.36
31501;BME280;31032;49.512;10.892;2022-07-29T12:09:23;97586.63;;;30.53;36.64
31501;BME280;31032;49.512;10.892;2022-07-29T12:11:57;97584.00;;;30.68;36.30
31501;BME280;31032;49.512;10.892;2022-07-29T12:14:29;97576.47;;;30.70;36.35
31501;BME280;31032;49.512;10.892;2022-07-29T12:16:56;97581.63;;;30.72;36.63
31501;BME280;31032;49.512;10.892;2022-07-29T12:19:22;97574.72;;;30.96;36.79
31501;BME280;31032;49.512;10.892;2022-07-29T12:21:51;97571.06;;;31.37;36.03
31501;BME280;31032;49.512;10.892;2022-07-29T12:24:18;97569.44;;;31.56;35.41
31501;BME280;31032;49.512;10.892;2022-07-29T12:26:50;97569.41;;;31.26;36.94
31501;BME280;31032;49.512;10.892;2022-07-29T12:29:16;97567.31;;;31.93;35.97
31501;BME280;31032;49.512;10.892;2022-07-29T12:31:42;97571.06;;;31.98;36.41
31501;BME280;31032;49.512;10.892;2022-07-29T12:34:13;97575.84;;;32.31;34.35
31501;BME280;31032;49.512;10.892;2022-07-29T12:36:41;97574.81;;;32.17;34.93
31501;BME280;31032;49.512;10.892;2022-07-29T12:39:08;97578.56;;;32.16;35.02
31501;BME280;31032;49.512;10.892;2022-07-29T12:41:35;97575.38;;;31.63;34.35
31501;BME280;31032;49.512;10.892;2022-07-29T12:44:01;97562.72;;;30.57;35.77
31501;BME280;31032;49.512;10.892;2022-07-29T12:46:26;97563.25;;;30.49;37.45
31501;BME280;31032;49.512;10.892;2022-07-29T12:48:53;97557.25;;;31.03;36.37
31501;BME280;31032;49.512;10.892;2022-07-29T12:51:37;97556.97;;;30.95;35.92
31501;BME280;31032;49.512;10.892;2022-07-29T12:54:04;97556.28;;;30.58;36.67
31501;BME280;31032;49.512;10.892;2022-07-29T12:56:29;97552.81;;;30.72;37.29
31501;BME280;31032;49.512;10.892;2022-07-29T12:58:55;97544.06;;;30.97;36.16
31501;BME280;31032;49.512;10.892;2022-07-29T13:01:20;97549.41;;;30.92;36.72
31501;BME280;31032;49.512;10.892;2022-07-29T13:03:57;97545.13;;;30.91;36.22
31501;BME280;31032;49.512;10.892;2022-07-29T13:11:31;97534.44;;;29.92;36.41
31501;BME280;31032;49.512;10.892;2022-07-29T13:13:57;97526.03;;;29.79;37.25
31501;BME280;31032;49.512;10.892;2022-07-29T13:16:23;97531.63;;;29.72;37.62
31501;BME280;31032;49.512;10.892;2022-07-29T13:19:06;97540.31;;;29.21;37.63
31501;BME280;31032;49.512;10.892;2022-07-29T13:21:31;97538.78;;;29.30;38.08
31501;BME280;31032;49.512;10.892;2022-07-29T13:23:57;97547.38;;;29.32;38.09
31501;BME280;31032;49.512;10.892;2022-07-29T13:26:22;97540.44;;;29.36;38.25
31501;BME280;31032;49.512;10.892;2022-07-29T13:28:47;97535.19;;;29.51;38.00
31501;BME280;31032;49.512;10.892;2022-07-29T13:31:13;97538.22;;;29.28;38.97
31501;BME280;31032;49.512;10.892;2022-07-29T13:33:38;97541.72;;;29.28;38.55
31501;BME280;31032;49.512;10.892;2022-07-29T13:36:03;97541.44;;;29.30;38.03
31501;BME280;31032;49.512;10.892;2022-07-29T13:38:29;97537.38;;;29.22;38.00
31501;BME280;31032;49.512;10.892;2022-07-29T13:40:54;97537.09;;;29.24;37.97
31501;BME280;31032;49.512;10.892;2022-07-29T13:43:19;97535.53;;;29.28;37.94
31501;BME280;31032;49.512;10.892;2022-07-29T13:45:45;97544.56;;;29.17;37.99
31501;BME280;31032;49.512;10.892;2022-07-29T13:48:10;97554.72;;;29.15;38.78